Eastlake, Colorado
Current Conditions -  °F | °C
As of 5:15 PM on Wednesday 28 Jan 2015 (Local Time) from KEIK Reporting Station
Clear Clear  
Wind Chill: 11°   Ceiling: Unl
Heat Index: 11°   Visibility: 10mi
Dew Point: -8°   Wind: 9mph
Humidity: 25%   Direction: 310°NW
Pressure: 30.11"   Gusts: NA
Location:  39.92°N, 104.96°W
Report Text: KEIK 290015Z AUTO 31008KT 10SM CLR 11/M08 A3011 RMK AO2 T01141079
Loading
Personal Weather Stations






























Interactive Weather Map New forecast layout! Learn more

10-Day Weather Forecast

Advertisements
Track Severe Weather on mobile